createdAt,value
2018-05-04T00:01:44.013Z,17.49
2018-05-04T00:04:14.192Z,17.47
2018-05-04T00:06:44.332Z,17.40
2018-05-04T00:09:14.261Z,17.37
2018-05-04T00:11:44.228Z,17.29
2018-05-04T00:14:14.073Z,17.31
2018-05-04T00:16:44.115Z,17.31
2018-05-04T00:19:14.247Z,17.28
2018-05-04T00:21:44.678Z,17.28
2018-05-04T00:24:17.174Z,17.35
2018-05-04T00:26:47.734Z,17.39
2018-05-04T00:29:17.919Z,17.41
2018-05-04T00:31:48.135Z,17.40
2018-05-04T00:34:18.159Z,17.51
2018-05-04T00:36:48.353Z,17.44
2018-05-04T00:39:18.562Z,17.47
2018-05-04T00:41:48.720Z,17.43
2018-05-04T00:44:19.345Z,17.43
2018-05-04T00:46:49.388Z,17.28
2018-05-04T00:49:19.854Z,17.23
2018-05-04T00:51:50.250Z,17.17
2018-05-04T00:54:24.111Z,17.14
2018-05-04T00:56:54.345Z,17.00
2018-05-04T00:59:25.485Z,16.96
2018-05-04T01:01:55.488Z,16.87
2018-05-04T01:04:25.293Z,16.66
2018-05-04T01:06:55.391Z,16.63
2018-05-04T01:09:25.948Z,16.60
2018-05-04T01:11:56.179Z,16.61
2018-05-04T01:14:26.471Z,16.63
2018-05-04T01:16:56.553Z,16.62
2018-05-04T01:19:26.844Z,16.50
2018-05-04T01:21:57.035Z,16.48
2018-05-04T01:24:27.137Z,15.92
2018-05-04T01:26:57.216Z,15.60
2018-05-04T01:29:27.447Z,15.49
2018-05-04T01:31:57.472Z,15.47
2018-05-04T01:34:27.205Z,15.52
2018-05-04T01:36:57.765Z,15.56
2018-05-04T01:39:27.918Z,15.41
2018-05-04T01:41:58.239Z,14.94
2018-05-04T01:44:28.543Z,15.25
2018-05-04T01:46:58.860Z,15.34
2018-05-04T01:49:29.608Z,15.44
2018-05-04T01:51:59.472Z,15.39
2018-05-04T01:54:29.295Z,15.40
2018-05-04T01:56:59.754Z,15.63
2018-05-04T01:59:30.037Z,15.68
2018-05-04T02:02:00.150Z,15.56
2018-05-04T02:04:30.121Z,15.50
2018-05-04T02:07:00.376Z,15.12
2018-05-04T02:09:30.777Z,15.02
2018-05-04T02:12:00.826Z,14.67
2018-05-04T02:14:30.762Z,14.70
2018-05-04T02:17:00.943Z,14.80
2018-05-04T02:19:30.748Z,14.83
2018-05-04T02:22:00.830Z,15.06
2018-05-04T02:24:31.245Z,15.17
2018-05-04T02:27:01.602Z,15.18
2018-05-04T02:29:31.699Z,15.01
2018-05-04T02:32:01.935Z,14.95
2018-05-04T02:34:31.753Z,14.86
2018-05-04T02:37:02.043Z,14.71
2018-05-04T02:39:32.074Z,14.85
2018-05-04T02:42:02.438Z,15.03
2018-05-04T02:44:32.648Z,14.82
2018-05-04T02:47:02.823Z,14.81
2018-05-04T02:49:32.625Z,14.81
2018-05-04T02:52:02.923Z,14.73
2018-05-04T02:54:32.687Z,14.82
2018-05-04T02:57:02.918Z,15.05
2018-05-04T02:59:32.681Z,15.14
2018-05-04T03:02:02.731Z,15.20
2018-05-04T03:04:32.527Z,15.21
2018-05-04T03:07:02.724Z,15.12
2018-05-04T03:09:33.025Z,14.96
2018-05-04T03:12:03.290Z,15.03
2018-05-04T03:14:34.509Z,15.00
2018-05-04T03:17:04.380Z,15.03
2018-05-04T03:19:34.329Z,15.07
2018-05-04T03:22:05.119Z,15.21
2018-05-04T03:24:35.319Z,15.33
2018-05-04T03:27:05.495Z,15.38
2018-05-04T03:29:35.638Z,15.61
2018-05-04T03:32:06.135Z,15.53
2018-05-04T03:34:36.133Z,15.66
2018-05-04T03:37:06.032Z,15.80
2018-05-04T03:39:36.038Z,15.75
2018-05-04T03:42:06.382Z,15.59
2018-05-04T03:44:36.736Z,15.73
2018-05-04T03:47:07.411Z,15.90
2018-05-04T03:49:37.422Z,15.92
2018-05-04T03:52:07.791Z,15.96
2018-05-04T03:54:38.063Z,15.90
2018-05-04T03:57:19.754Z,15.87
2018-05-04T04:00:01.255Z,15.98
2018-05-04T04:02:42.586Z,16.04
2018-05-04T04:05:12.375Z,16.16
2018-05-04T04:07:42.225Z,16.22
2018-05-04T04:10:12.040Z,16.33
2018-05-04T04:12:42.524Z,16.36
2018-05-04T04:15:12.262Z,16.38
2018-05-04T04:17:42.029Z,16.29
2018-05-04T04:20:11.816Z,16.24
2018-05-04T04:22:41.571Z,16.50
2018-05-04T04:25:11.387Z,16.45
2018-05-04T04:27:41.305Z,16.47
2018-05-04T04:30:11.090Z,16.62
2018-05-04T04:32:40.929Z,16.63
2018-05-04T04:35:10.960Z,16.72
2018-05-04T04:37:41.607Z,16.86
2018-05-04T04:40:11.606Z,17.02
2018-05-04T04:42:41.363Z,16.95
2018-05-04T04:45:11.168Z,16.97
2018-05-04T04:47:41.002Z,16.94
2018-05-04T04:50:10.705Z,17.01
2018-05-04T04:52:40.625Z,17.05
2018-05-04T04:55:10.500Z,17.31
2018-05-04T04:57:40.286Z,17.36
2018-05-04T05:00:10.053Z,17.53
2018-05-04T05:02:39.776Z,17.79
2018-05-04T05:05:09.580Z,17.88
2018-05-04T05:07:39.378Z,17.92
2018-05-04T05:10:09.153Z,17.93
2018-05-04T05:12:40.031Z,17.81
2018-05-04T05:15:09.796Z,17.99
2018-05-04T05:17:39.674Z,18.08
2018-05-04T05:20:09.446Z,18.11
2018-05-04T05:22:39.198Z,18.04
2018-05-04T05:25:09.620Z,18.00
2018-05-04T05:27:39.453Z,18.00
2018-05-04T05:30:09.232Z,18.14
2018-05-04T05:32:39.003Z,18.17
2018-05-04T05:35:08.754Z,17.98
2018-05-04T05:37:38.551Z,18.10
2018-05-04T05:40:08.315Z,18.13
2018-05-04T05:42:38.013Z,18.24
2018-05-04T05:45:07.830Z,18.19
2018-05-04T05:47:37.603Z,18.38
2018-05-04T05:50:07.390Z,18.59
2018-05-04T05:52:38.999Z,18.82
2018-05-04T05:55:08.821Z,19.10
2018-05-04T05:57:38.633Z,19.46
2018-05-04T06:00:08.417Z,19.70
2018-05-04T06:02:38.157Z,19.86
2018-05-04T06:05:07.940Z,20.11
2018-05-04T06:07:37.708Z,20.39
2018-05-04T06:10:07.618Z,20.16
2018-05-04T06:12:37.422Z,20.16
2018-05-04T06:15:07.285Z,20.28
2018-05-04T06:17:37.082Z,20.58
2018-05-04T06:20:07.137Z,20.83
2018-05-04T06:22:36.870Z,21.20
2018-05-04T06:25:07.556Z,21.35
2018-05-04T06:27:37.394Z,21.41
2018-05-04T06:45:37.266Z,21.36
2018-05-04T06:48:07.166Z,21.33
2018-05-04T06:50:37.983Z,21.20
2018-05-04T06:53:07.793Z,21.26
2018-05-04T06:55:38.489Z,21.06
2018-05-04T06:58:08.317Z,21.00
2018-05-04T07:00:38.185Z,20.96
2018-05-04T07:03:07.951Z,20.86
2018-05-04T07:05:37.716Z,20.84
2018-05-04T07:08:07.878Z,20.57
2018-05-04T07:10:37.660Z,20.70
2018-05-04T07:13:07.453Z,20.75
2018-05-04T07:15:37.246Z,20.91
2018-05-04T07:18:07.087Z,21.06
2018-05-04T07:20:37.326Z,21.22
2018-05-04T07:23:07.119Z,21.27
2018-05-04T07:25:36.978Z,21.20
2018-05-04T07:28:09.024Z,21.43
2018-05-04T07:30:41.221Z,21.37
2018-05-04T07:33:20.000Z,21.35
2018-05-04T07:38:43.625Z,21.55
2018-05-04T07:41:13.403Z,21.70
2018-05-04T07:43:43.207Z,21.95
2018-05-04T07:46:13.133Z,22.14
2018-05-04T07:48:43.927Z,22.33
2018-05-04T07:51:13.840Z,22.34
2018-05-04T07:53:43.591Z,22.32
2018-05-04T07:56:13.499Z,22.42
2018-05-04T07:58:43.244Z,22.38
2018-05-04T08:01:13.037Z,22.29
2018-05-04T08:03:42.895Z,22.17
2018-05-04T08:06:12.710Z,22.37
2018-05-04T08:08:42.470Z,22.50
2018-05-04T08:11:12.382Z,22.54
2018-05-04T08:13:42.197Z,22.78
2018-05-04T08:16:12.001Z,23.10
2018-05-04T08:18:41.738Z,23.56
2018-05-04T08:21:11.457Z,23.93
2018-05-04T08:23:41.273Z,24.21
2018-05-04T08:26:11.044Z,24.35
2018-05-04T08:28:40.907Z,24.37
2018-05-04T08:31:10.614Z,25.04
2018-05-04T08:33:40.430Z,25.74
2018-05-04T08:36:11.187Z,25.60
2018-05-04T08:38:40.925Z,25.61
2018-05-04T08:41:10.700Z,26.31
2018-05-04T08:43:40.463Z,27.02
2018-05-04T08:46:10.317Z,26.81
2018-05-04T08:48:40.142Z,26.57
2018-05-04T08:51:10.965Z,26.61
2018-05-04T08:53:40.837Z,26.32
2018-05-04T08:56:10.630Z,26.43
2018-05-04T08:58:40.352Z,27.29
2018-05-04T09:04:00.569Z,27.88
2018-05-04T09:06:30.395Z,27.32
2018-05-04T09:09:00.207Z,27.92
2018-05-04T09:11:29.978Z,28.51
2018-05-04T09:13:59.832Z,28.89
2018-05-04T09:16:29.572Z,28.97
2018-05-04T09:19:00.123Z,29.45
2018-05-04T09:21:29.882Z,29.67
2018-05-04T09:23:59.734Z,28.69
2018-05-04T09:26:43.220Z,28.61
2018-05-04T09:29:14.004Z,28.88
2018-05-04T09:31:43.879Z,29.62
2018-05-04T09:34:17.600Z,29.97
2018-05-04T09:36:51.316Z,29.10
2018-05-04T09:39:26.872Z,28.77
2018-05-04T09:41:56.590Z,29.48
2018-05-04T09:44:28.065Z,29.18
2018-05-04T09:46:58.412Z,29.76
2018-05-04T09:49:29.616Z,29.50
2018-05-04T09:52:06.203Z,30.21
2018-05-04T09:54:36.496Z,30.21
2018-05-04T09:57:06.238Z,29.92
2018-05-04T09:59:36.169Z,29.64
2018-05-04T10:02:06.177Z,30.18
2018-05-04T10:04:35.950Z,29.93
2018-05-04T10:07:05.817Z,29.99
2018-05-04T10:09:35.587Z,30.14
2018-05-04T10:12:05.393Z,30.46
2018-05-04T10:14:35.238Z,30.70
2018-05-04T10:17:05.136Z,31.13
2018-05-04T10:19:38.643Z,31.04
2018-05-04T10:22:09.386Z,31.08
2018-05-04T10:24:43.121Z,31.15
2018-05-04T10:27:13.860Z,31.40
2018-05-04T10:29:44.843Z,31.25
2018-05-04T10:32:16.846Z,31.60
2018-05-04T10:34:51.737Z,32.06
2018-05-04T10:37:26.600Z,32.38
2018-05-04T10:39:57.946Z,32.10
2018-05-04T10:42:27.753Z,31.80
2018-05-04T10:44:57.672Z,32.46
2018-05-04T23:12:05.794Z,15.48
2018-05-04T23:14:36.991Z,15.54
2018-05-04T23:17:07.308Z,15.66
2018-05-04T23:19:37.568Z,15.69
2018-05-04T23:22:07.613Z,15.74
2018-05-04T23:24:37.477Z,15.79
2018-05-04T23:27:07.392Z,15.73
2018-05-04T23:29:37.889Z,15.68
2018-05-04T23:32:07.648Z,15.58
2018-05-04T23:34:37.691Z,15.30
2018-05-04T23:37:07.896Z,15.16
2018-05-04T23:39:38.257Z,15.25
2018-05-04T23:42:08.053Z,15.18
2018-05-04T23:44:38.311Z,15.30
2018-05-04T23:47:08.576Z,15.33
2018-05-04T23:49:38.784Z,15.26
2018-05-04T23:52:09.145Z,15.39
2018-05-04T23:54:39.854Z,15.32
2018-05-04T23:57:09.644Z,15.27
2018-05-04T23:59:39.472Z,15.29
